sensor_id;sensor_type;location;lat;lon;timestamp;pressure;altitude;pressure_sealevel;temperature;humidity
54329;BME280;40710;51.120;13.136;2022-11-18T00:00:47;97725.44;;;11.87;59.12
54329;BME280;40710;51.120;13.136;2022-11-18T00:03:12;97722.19;;;11.95;59.13
54329;BME280;40710;51.120;13.136;2022-11-18T00:05:36;97733.16;;;11.58;60.09
54329;BME280;40710;51.120;13.136;2022-11-18T00:08:01;97728.72;;;11.58;60.09
54329;BME280;40710;51.120;13.136;2022-11-18T00:10:26;97730.44;;;12.11;59.17
54329;BME280;40710;51.120;13.136;2022-11-18T00:12:50;97730.09;;;11.95;59.08
54329;BME280;40710;51.120;13.136;2022-11-18T00:15:33;97740.25;;;11.46;60.74
54329;BME280;40710;51.120;13.136;2022-11-18T00:17:58;97730.03;;;12.46;58.02
54329;BME280;40710;51.120;13.136;2022-11-18T00:20:22;97736.41;;;11.50;60.17
54329;BME280;40710;51.120;13.136;2022-11-18T00:22:47;97747.16;;;11.26;61.79
54329;BME280;40710;51.120;13.136;2022-11-18T00:25:12;97750.28;;;11.20;61.23
54329;BME280;40710;51.120;13.136;2022-11-18T00:27:36;97754.63;;;11.42;61.64
54329;BME280;40710;51.120;13.136;2022-11-18T00:30:01;97741.25;;;11.66;60.13
54329;BME280;40710;51.120;13.136;2022-11-18T00:32:25;97738.50;;;12.19;59.09
54329;BME280;40710;51.120;13.136;2022-11-18T00:34:50;97736.75;;;11.99;59.50
54329;BME280;40710;51.120;13.136;2022-11-18T00:37:14;97741.25;;;11.45;60.52
54329;BME280;40710;51.120;13.136;2022-11-18T00:39:39;97749.81;;;11.26;61.63
54329;BME280;40710;51.120;13.136;2022-11-18T00:42:03;97751.16;;;10.65;62.88
54329;BME280;40710;51.120;13.136;2022-11-18T00:44:46;97745.78;;;11.64;61.52
54329;BME280;40710;51.120;13.136;2022-11-18T00:47:11;97729.69;;;11.99;59.24
54329;BME280;40710;51.120;13.136;2022-11-18T00:49:35;97734.56;;;11.62;60.29
54329;BME280;40710;51.120;13.136;2022-11-18T00:52:00;97739.81;;;11.83;60.08
54329;BME280;40710;51.120;13.136;2022-11-18T00:54:25;97742.66;;;11.70;59.39
54329;BME280;40710;51.120;13.136;2022-11-18T00:56:49;97754.31;;;12.19;59.04
54329;BME280;40710;51.120;13.136;2022-11-18T00:59:14;97741.53;;;12.45;58.40
54329;BME280;40710;51.120;13.136;2022-11-18T01:01:39;97749.25;;;11.85;59.59
54329;BME280;40710;51.120;13.136;2022-11-18T01:04:03;97749.91;;;11.99;59.55
54329;BME280;40710;51.120;13.136;2022-11-18T01:06:29;97762.63;;;11.08;60.46
54329;BME280;40710;51.120;13.136;2022-11-18T01:08:53;97768.94;;;10.73;63.09
54329;BME280;40710;51.120;13.136;2022-11-18T01:11:18;97743.44;;;12.03;60.02
54329;BME280;40710;51.120;13.136;2022-11-18T01:14:01;97742.97;;;12.28;59.01
54329;BME280;40710;51.120;13.136;2022-11-18T01:16:26;97748.28;;;12.07;59.43
54329;BME280;40710;51.120;13.136;2022-11-18T01:18:52;97748.94;;;11.79;59.51
54329;BME280;40710;51.120;13.136;2022-11-18T01:21:17;97740.66;;;12.35;59.03
54329;BME280;40710;51.120;13.136;2022-11-18T01:23:42;97742.84;;;11.78;60.59
54329;BME280;40710;51.120;13.136;2022-11-18T01:26:09;97739.38;;;11.99;59.73
54329;BME280;40710;51.120;13.136;2022-11-18T01:28:35;97748.56;;;11.83;59.66
54329;BME280;40710;51.120;13.136;2022-11-18T01:31:08;97739.09;;;12.23;59.04
54329;BME280;40710;51.120;13.136;2022-11-18T01:33:34;97737.38;;;12.12;59.13
54329;BME280;40710;51.120;13.136;2022-11-18T01:35:58;97734.63;;;12.14;59.31
54329;BME280;40710;51.120;13.136;2022-11-18T01:38:23;97736.59;;;12.21;59.15
54329;BME280;40710;51.120;13.136;2022-11-18T01:40:47;97746.50;;;12.39;58.86
54329;BME280;40710;51.120;13.136;2022-11-18T01:43:17;97739.03;;;12.13;59.49
54329;BME280;40710;51.120;13.136;2022-11-18T01:45:44;97743.88;;;12.08;59.85
54329;BME280;40710;51.120;13.136;2022-11-18T01:50:45;97737.38;;;11.70;60.81
54329;BME280;40710;51.120;13.136;2022-11-18T01:53:24;97748.38;;;10.78;62.98
54329;BME280;40710;51.120;13.136;2022-11-18T01:55:52;97764.19;;;10.44;64.50
54329;BME280;40710;51.120;13.136;2022-11-18T01:58:25;97747.41;;;11.23;62.53
54329;BME280;40710;51.120;13.136;2022-11-18T02:00:51;97754.56;;;10.88;63.69
54329;BME280;40710;51.120;13.136;2022-11-18T02:03:16;97752.19;;;10.85;63.65
54329;BME280;40710;51.120;13.136;2022-11-18T02:05:45;97750.28;;;10.87;63.80
54329;BME280;40710;51.120;13.136;2022-11-18T02:08:11;97753.38;;;10.92;63.12
54329;BME280;40710;51.120;13.136;2022-11-18T02:10:37;97756.53;;;11.19;62.37
54329;BME280;40710;51.120;13.136;2022-11-18T02:13:02;97753.75;;;11.20;62.63
54329;BME280;40710;51.120;13.136;2022-11-18T02:16:00;97770.59;;;10.74;63.83
54329;BME280;40710;51.120;13.136;2022-11-18T02:29:40;97770.03;;;10.36;65.22
54329;BME280;40710;51.120;13.136;2022-11-18T02:32:16;97752.19;;;10.85;63.24
54329;BME280;40710;51.120;13.136;2022-11-18T02:35:02;97766.53;;;10.13;66.97
54329;BME280;40710;51.120;13.136;2022-11-18T02:37:40;97763.59;;;10.40;66.02
54329;BME280;40710;51.120;13.136;2022-11-18T02:40:21;97743.63;;;11.04;63.92
54329;BME280;40710;51.120;13.136;2022-11-18T02:43:00;97751.56;;;10.93;63.96
54329;BME280;40710;51.120;13.136;2022-11-18T02:45:29;97752.91;;;11.31;62.98
54329;BME280;40710;51.120;13.136;2022-11-18T02:47:58;97742.78;;;11.15;63.17
54329;BME280;40710;51.120;13.136;2022-11-18T02:50:29;97764.66;;;10.49;65.08
54329;BME280;40710;51.120;13.136;2022-11-18T02:53:00;97760.19;;;10.27;65.24
54329;BME280;40710;51.120;13.136;2022-11-18T02:55:30;97758.81;;;10.34;66.19
54329;BME280;40710;51.120;13.136;2022-11-18T02:57:58;97766.44;;;10.37;65.84
54329;BME280;40710;51.120;13.136;2022-11-18T03:00:24;97772.63;;;10.14;66.90
54329;BME280;40710;51.120;13.136;2022-11-18T03:02:49;97758.75;;;10.79;64.57
54329;BME280;40710;51.120;13.136;2022-11-18T03:05:22;97756.59;;;10.96;63.73
54329;BME280;40710;51.120;13.136;2022-11-18T03:07:55;97753.63;;;11.22;63.04
54329;BME280;40710;51.120;13.136;2022-11-18T03:10:24;97747.25;;;11.03;63.51
54329;BME280;40710;51.120;13.136;2022-11-18T03:13:16;97762.34;;;10.67;65.46
54329;BME280;40710;51.120;13.136;2022-11-18T03:15:59;97745.03;;;11.20;63.15
54329;BME280;40710;51.120;13.136;2022-11-18T03:18:32;97751.34;;;10.85;63.10
54329;BME280;40710;51.120;13.136;2022-11-18T03:23:43;97749.13;;;11.12;62.24
54329;BME280;40710;51.120;13.136;2022-11-18T03:26:27;97746.41;;;11.35;62.60
54329;BME280;40710;51.120;13.136;2022-11-18T03:29:31;97747.06;;;11.48;62.28
54329;BME280;40710;51.120;13.136;2022-11-18T03:32:16;97767.13;;;10.28;64.96
54329;BME280;40710;51.120;13.136;2022-11-18T03:34:49;97764.75;;;10.70;64.83
54329;BME280;40710;51.120;13.136;2022-11-18T03:37:20;97763.88;;;10.81;63.76
54329;BME280;40710;51.120;13.136;2022-11-18T03:39:52;97763.22;;;11.44;62.45
54329;BME280;40710;51.120;13.136;2022-11-18T03:42:28;97760.63;;;11.65;61.42
54329;BME280;40710;51.120;13.136;2022-11-18T03:45:09;97762.03;;;11.69;60.83
54329;BME280;40710;51.120;13.136;2022-11-18T03:47:41;97775.84;;;10.85;63.79
54329;BME280;40710;51.120;13.136;2022-11-18T03:50:22;97765.78;;;11.55;61.75
54329;BME280;40710;51.120;13.136;2022-11-18T03:52:52;97770.91;;;11.68;61.10
54329;BME280;40710;51.120;13.136;2022-11-18T03:55:22;97778.38;;;11.51;61.97
54329;BME280;40710;51.120;13.136;2022-11-18T04:00:22;97784.84;;;11.47;61.74
54329;BME280;40710;51.120;13.136;2022-11-18T04:02:49;97792.28;;;11.42;61.23
54329;BME280;40710;51.120;13.136;2022-11-18T04:05:16;97794.06;;;11.09;62.30
54329;BME280;40710;51.120;13.136;2022-11-18T04:10:18;97797.47;;;10.89;62.43
54329;BME280;40710;51.120;13.136;2022-11-18T04:13:05;97803.31;;;10.92;62.83
54329;BME280;40710;51.120;13.136;2022-11-18T04:15:31;97806.59;;;11.06;61.93
54329;BME280;40710;51.120;13.136;2022-11-18T04:17:56;97805.97;;;11.25;61.39
54329;BME280;40710;51.120;13.136;2022-11-18T04:20:21;97812.97;;;11.03;61.40
54329;BME280;40710;51.120;13.136;2022-11-18T04:22:46;97814.28;;;10.86;61.83
54329;BME280;40710;51.120;13.136;2022-11-18T04:25:11;97825.06;;;9.91;63.48
54329;BME280;40710;51.120;13.136;2022-11-18T04:27:36;97825.22;;;10.12;63.46
54329;BME280;40710;51.120;13.136;2022-11-18T04:30:00;97811.44;;;10.89;61.36
54329;BME280;40710;51.120;13.136;2022-11-18T04:32:25;97820.34;;;11.09;61.25
54329;BME280;40710;51.120;13.136;2022-11-18T04:34:49;97814.78;;;10.80;61.39
54329;BME280;40710;51.120;13.136;2022-11-18T04:37:14;97839.72;;;9.58;64.47
54329;BME280;40710;51.120;13.136;2022-11-18T04:39:39;97824.19;;;10.26;63.07
54329;BME280;40710;51.120;13.136;2022-11-18T04:42:03;97829.38;;;10.03;62.99
54329;BME280;40710;51.120;13.136;2022-11-18T04:44:32;97821.97;;;10.67;61.79
54329;BME280;40710;51.120;13.136;2022-11-18T04:47:00;97820.78;;;10.59;61.11
54329;BME280;40710;51.120;13.136;2022-11-18T04:49:25;97820.16;;;10.78;60.79
54329;BME280;40710;51.120;13.136;2022-11-18T04:51:51;97815.16;;;10.53;61.13
54329;BME280;40710;51.120;13.136;2022-11-18T04:54:16;97820.72;;;10.26;61.95
54329;BME280;40710;51.120;13.136;2022-11-18T04:56:42;97826.41;;;9.73;62.87
54329;BME280;40710;51.120;13.136;2022-11-18T04:59:07;97839.44;;;9.02;64.76
54329;BME280;40710;51.120;13.136;2022-11-18T05:01:33;97835.88;;;9.27;64.78
54329;BME280;40710;51.120;13.136;2022-11-18T05:04:02;97843.06;;;9.12;64.67
54329;BME280;40710;51.120;13.136;2022-11-18T05:06:27;97843.84;;;9.25;63.85
54329;BME280;40710;51.120;13.136;2022-11-18T05:08:52;97856.69;;;8.55;66.53
54329;BME280;40710;51.120;13.136;2022-11-18T05:11:16;97860.25;;;9.16;64.88
54329;BME280;40710;51.120;13.136;2022-11-18T05:14:00;97865.16;;;8.84;65.83
54329;BME280;40710;51.120;13.136;2022-11-18T05:16:24;97868.38;;;8.10;66.88
54329;BME280;40710;51.120;13.136;2022-11-18T05:18:49;97888.09;;;7.76;69.32
54329;BME280;40710;51.120;13.136;2022-11-18T05:21:13;97874.53;;;8.99;66.41
54329;BME280;40710;51.120;13.136;2022-11-18T05:23:38;97860.78;;;9.45;64.19
54329;BME280;40710;51.120;13.136;2022-11-18T05:26:08;97860.94;;;9.55;63.22
54329;BME280;40710;51.120;13.136;2022-11-18T05:28:33;97862.81;;;9.53;62.85
54329;BME280;40710;51.120;13.136;2022-11-18T05:30:58;97852.50;;;9.63;61.91
54329;BME280;40710;51.120;13.136;2022-11-18T05:33:22;97850.78;;;9.75;62.60
54329;BME280;40710;51.120;13.136;2022-11-18T05:35:47;97852.28;;;9.66;62.13
54329;BME280;40710;51.120;13.136;2022-11-18T05:38:11;97864.84;;;9.50;62.33
54329;BME280;40710;51.120;13.136;2022-11-18T05:40:36;97867.91;;;9.68;61.93
54329;BME280;40710;51.120;13.136;2022-11-18T05:43:00;97876.63;;;9.07;61.92
54329;BME280;40710;51.120;13.136;2022-11-18T05:45:34;97881.91;;;8.94;63.35
54329;BME280;40710;51.120;13.136;2022-11-18T05:47:58;97887.78;;;8.72;63.75
54329;BME280;40710;51.120;13.136;2022-11-18T05:50:23;97893.69;;;9.50;62.04
54329;BME280;40710;51.120;13.136;2022-11-18T05:52:47;97894.28;;;9.53;62.04
54329;BME280;40710;51.120;13.136;2022-11-18T05:55:15;97897.63;;;8.94;62.69
54329;BME280;40710;51.120;13.136;2022-11-18T05:57:40;97895.78;;;9.20;62.15
54329;BME280;40710;51.120;13.136;2022-11-18T06:00:05;97904.16;;;8.63;63.19
54329;BME280;40710;51.120;13.136;2022-11-18T06:02:30;97904.97;;;8.76;62.83
54329;BME280;40710;51.120;13.136;2022-11-18T06:05:01;97910.41;;;8.60;62.79
54329;BME280;40710;51.120;13.136;2022-11-18T06:07:38;97911.44;;;9.09;62.72
54329;BME280;40710;51.120;13.136;2022-11-18T06:10:04;97930.03;;;8.14;64.62
54329;BME280;40710;51.120;13.136;2022-11-18T06:12:35;97917.44;;;9.35;62.20
54329;BME280;40710;51.120;13.136;2022-11-18T06:17:37;97918.94;;;9.26;61.62
54329;BME280;40710;51.120;13.136;2022-11-18T06:20:06;97913.38;;;9.31;61.29
54329;BME280;40710;51.120;13.136;2022-11-18T06:22:33;97915.38;;;9.27;61.48
54329;BME280;40710;51.120;13.136;2022-11-18T06:24:59;97920.38;;;9.43;61.48
54329;BME280;40710;51.120;13.136;2022-11-18T06:27:24;97917.00;;;8.92;62.34
54329;BME280;40710;51.120;13.136;2022-11-18T06:29:48;97927.50;;;8.53;63.95
54329;BME280;40710;51.120;13.136;2022-11-18T06:32:13;97933.03;;;8.48;64.13
54329;BME280;40710;51.120;13.136;2022-11-18T06:34:37;97931.94;;;9.28;61.73
54329;BME280;40710;51.120;13.136;2022-11-18T06:37:16;97939.75;;;8.78;63.62
54329;BME280;40710;51.120;13.136;2022-11-18T06:39:41;97947.16;;;7.93;64.63
54329;BME280;40710;51.120;13.136;2022-11-18T06:42:05;97939.56;;;8.56;64.27
54329;BME280;40710;51.120;13.136;2022-11-18T06:44:30;97944.72;;;8.17;64.64
54329;BME280;40710;51.120;13.136;2022-11-18T06:46:55;97951.97;;;7.99;65.23
54329;BME280;40710;51.120;13.136;2022-11-18T06:49:19;97957.03;;;7.61;65.27
54329;BME280;40710;51.120;13.136;2022-11-18T06:51:44;97955.56;;;8.11;66.07
54329;BME280;40710;51.120;13.136;2022-11-18T06:54:09;97964.59;;;7.24;65.74
54329;BME280;40710;51.120;13.136;2022-11-18T06:56:33;97965.75;;;7.47;67.18
54329;BME280;40710;51.120;13.136;2022-11-18T06:58:59;97952.22;;;8.62;64.28
54329;BME280;40710;51.120;13.136;2022-11-18T07:01:26;97949.34;;;9.16;61.70
54329;BME280;40710;51.120;13.136;2022-11-18T07:03:51;97950.72;;;9.09;60.98
54329;BME280;40710;51.120;13.136;2022-11-18T07:06:19;97948.72;;;9.62;60.13
54329;BME280;40710;51.120;13.136;2022-11-18T07:08:44;97957.63;;;9.60;60.13
54329;BME280;40710;51.120;13.136;2022-11-18T07:11:11;97963.44;;;9.15;61.51
54329;BME280;40710;51.120;13.136;2022-11-18T07:13:37;97972.94;;;9.16;61.93
54329;BME280;40710;51.120;13.136;2022-11-18T07:16:06;97977.25;;;8.92;62.72
54329;BME280;40710;51.120;13.136;2022-11-18T07:18:33;97978.00;;;8.28;63.41
54329;BME280;40710;51.120;13.136;2022-11-18T07:21:03;97981.47;;;8.41;62.86
54329;BME280;40710;51.120;13.136;2022-11-18T07:23:29;97984.31;;;8.38;62.73
54329;BME280;40710;51.120;13.136;2022-11-18T07:25:54;97977.38;;;8.77;61.58
54329;BME280;40710;51.120;13.136;2022-11-18T07:28:19;97995.53;;;7.58;63.91
54329;BME280;40710;51.120;13.136;2022-11-18T07:30:44;97990.03;;;8.18;63.95
54329;BME280;40710;51.120;13.136;2022-11-18T07:33:08;97985.72;;;8.57;61.76
54329;BME280;40710;51.120;13.136;2022-11-18T07:35:33;97994.22;;;7.93;63.84
54329;BME280;40710;51.120;13.136;2022-11-18T07:37:57;98002.44;;;7.87;64.05
54329;BME280;40710;51.120;13.136;2022-11-18T07:40:22;97994.91;;;7.82;64.56
54329;BME280;40710;51.120;13.136;2022-11-18T07:42:46;97992.22;;;7.69;63.87
54329;BME280;40710;51.120;13.136;2022-11-18T07:45:11;98007.13;;;7.26;64.63
54329;BME280;40710;51.120;13.136;2022-11-18T07:47:36;98010.50;;;6.99;65.72
54329;BME280;40710;51.120;13.136;2022-11-18T07:50:01;98019.69;;;6.61;66.98
54329;BME280;40710;51.120;13.136;2022-11-18T07:52:26;98015.97;;;6.66;66.13
54329;BME280;40710;51.120;13.136;2022-11-18T07:54:50;98004.63;;;7.38;64.45
54329;BME280;40710;51.120;13.136;2022-11-18T07:57:15;98023.56;;;6.40;67.10
54329;BME280;40710;51.120;13.136;2022-11-18T07:59:39;98006.66;;;7.48;64.13
54329;BME280;40710;51.120;13.136;2022-11-18T08:02:04;98014.63;;;6.58;65.64
54329;BME280;40710;51.120;13.136;2022-11-18T08:04:29;98014.78;;;7.29;65.12
54329;BME280;40710;51.120;13.136;2022-11-18T08:06:54;98009.09;;;7.36;63.50
54329;BME280;40710;51.120;13.136;2022-11-18T08:09:19;98024.78;;;7.36;64.43
54329;BME280;40710;51.120;13.136;2022-11-18T08:11:43;98017.13;;;7.89;62.58
54329;BME280;40710;51.120;13.136;2022-11-18T08:14:08;98026.28;;;7.41;63.80
54329;BME280;40710;51.120;13.136;2022-11-18T08:16:33;98037.63;;;6.82;65.92
54329;BME280;40710;51.120;13.136;2022-11-18T08:18:58;98035.97;;;6.95;65.40
54329;BME280;40710;51.120;13.136;2022-11-18T08:21:24;98025.13;;;7.45;63.54
54329;BME280;40710;51.120;13.136;2022-11-18T08:23:50;98021.66;;;8.00;62.18
54329;BME280;40710;51.120;13.136;2022-11-18T08:26:15;98043.53;;;7.00;64.91
54329;BME280;40710;51.120;13.136;2022-11-18T08:28:43;98045.69;;;7.51;64.50
54329;BME280;40710;51.120;13.136;2022-11-18T08:31:13;98044.28;;;7.60;63.21
54329;BME280;40710;51.120;13.136;2022-11-18T08:33:39;98046.22;;;7.70;62.96
54329;BME280;40710;51.120;13.136;2022-11-18T08:36:09;98054.94;;;6.69;65.00
54329;BME280;40710;51.120;13.136;2022-11-18T08:38:34;98057.34;;;7.31;64.19
54329;BME280;40710;51.120;13.136;2022-11-18T08:40:59;98054.84;;;7.44;63.75
54329;BME280;40710;51.120;13.136;2022-11-18T08:43:23;98053.91;;;7.16;63.61
54329;BME280;40710;51.120;13.136;2022-11-18T08:45:48;98064.03;;;6.92;64.82
54329;BME280;40710;51.120;13.136;2022-11-18T08:48:12;98063.97;;;7.08;65.14
54329;BME280;40710;51.120;13.136;2022-11-18T08:50:37;98067.16;;;7.42;65.54
54329;BME280;40710;51.120;13.136;2022-11-18T08:53:02;98058.28;;;8.00;62.46
54329;BME280;40710;51.120;13.136;2022-11-18T08:55:27;98052.69;;;7.92;61.19
54329;BME280;40710;51.120;13.136;2022-11-18T08:57:51;98077.34;;;6.87;63.94
54329;BME280;40710;51.120;13.136;2022-11-18T09:00:16;98067.13;;;7.27;65.00
54329;BME280;40710;51.120;13.136;2022-11-18T09:02:41;98070.28;;;6.59;64.75
54329;BME280;40710;51.120;13.136;2022-11-18T09:05:06;98066.63;;;6.77;65.02
54329;BME280;40710;51.120;13.136;2022-11-18T09:07:30;98053.66;;;7.91;62.65
54329;BME280;40710;51.120;13.136;2022-11-18T09:09:55;98056.03;;;7.67;63.30
54329;BME280;40710;51.120;13.136;2022-11-18T09:12:20;98070.59;;;7.56;63.21
54329;BME280;40710;51.120;13.136;2022-11-18T09:14:44;98081.50;;;7.06;64.16
54329;BME280;40710;51.120;13.136;2022-11-18T09:17:09;98073.03;;;7.16;63.74
54329;BME280;40710;51.120;13.136;2022-11-18T09:19:34;98089.22;;;6.93;64.64
54329;BME280;40710;51.120;13.136;2022-11-18T09:21:59;98080.59;;;7.50;62.73
54329;BME280;40710;51.120;13.136;2022-11-18T09:24:23;98093.56;;;7.23;63.03
54329;BME280;40710;51.120;13.136;2022-11-18T09:26:48;98089.25;;;7.36;62.55
54329;BME280;40710;51.120;13.136;2022-11-18T09:29:13;98087.47;;;7.80;61.75
54329;BME280;40710;51.120;13.136;2022-11-18T09:31:37;98108.03;;;7.28;62.39
54329;BME280;40710;51.120;13.136;2022-11-18T09:34:02;98122.94;;;7.12;63.56
54329;BME280;40710;51.120;13.136;2022-11-18T09:36:27;98124.41;;;6.71;63.83
54329;BME280;40710;51.120;13.136;2022-11-18T09:38:52;98130.72;;;6.21;64.74
54329;BME280;40710;51.120;13.136;2022-11-18T09:49:30;98131.88;;;6.47;64.18
54329;BME280;40710;51.120;13.136;2022-11-18T09:52:00;98129.84;;;6.52;63.74
54329;BME280;40710;51.120;13.136;2022-11-18T09:54:33;98128.75;;;6.87;62.59
54329;BME280;40710;51.120;13.136;2022-11-18T09:56:59;98139.28;;;6.23;64.31
54329;BME280;40710;51.120;13.136;2022-11-18T09:59:27;98135.41;;;6.46;63.69
54329;BME280;40710;51.120;13.136;2022-11-18T10:01:58;98136.88;;;5.86;64.41
54329;BME280;40710;51.120;13.136;2022-11-18T10:04:27;98127.09;;;6.08;64.16
54329;BME280;40710;51.120;13.136;2022-11-18T10:06:51;98144.41;;;5.08;66.25
54329;BME280;40710;51.120;13.136;2022-11-18T10:09:26;98143.78;;;5.72;64.74
54329;BME280;40710;51.120;13.136;2022-11-18T10:14:56;98152.13;;;5.10;67.02
54329;BME280;40710;51.120;13.136;2022-11-18T10:17:41;98165.94;;;5.63;66.79
54329;BME280;40710;51.120;13.136;2022-11-18T10:25:24;98150.63;;;6.54;61.70
54329;BME280;40710;51.120;13.136;2022-11-18T10:27:50;98156.38;;;6.13;62.65
54329;BME280;40710;51.120;13.136;2022-11-18T10:30:20;98163.75;;;6.36;62.80
54329;BME280;40710;51.120;13.136;2022-11-18T10:32:52;98169.41;;;5.97;63.88
54329;BME280;40710;51.120;13.136;2022-11-18T10:35:33;98180.88;;;6.10;64.72
54329;BME280;40710;51.120;13.136;2022-11-18T10:38:17;98184.78;;;5.68;63.83
54329;BME280;40710;51.120;13.136;2022-11-18T10:40:56;98171.78;;;6.49;62.20
54329;BME280;40710;51.120;13.136;2022-11-18T10:43:50;98190.44;;;6.10;63.48
54329;BME280;40710;51.120;13.136;2022-11-18T10:46:38;98193.19;;;6.06;63.82
54329;BME280;40710;51.120;13.136;2022-11-18T10:51:34;98210.69;;;5.71;64.48
54329;BME280;40710;51.120;13.136;2022-11-18T10:54:21;98215.22;;;5.15;64.87
54329;BME280;40710;51.120;13.136;2022-11-18T10:56:51;98202.41;;;6.30;62.26
54329;BME280;40710;51.120;13.136;2022-11-18T10:59:29;98210.84;;;6.35;61.71
54329;BME280;40710;51.120;13.136;2022-11-18T11:02:02;98216.38;;;5.44;62.68
54329;BME280;40710;51.120;13.136;2022-11-18T11:04:29;98219.56;;;5.84;62.65
54329;BME280;40710;51.120;13.136;2022-11-18T11:06:56;98219.03;;;6.11;61.78
54329;BME280;40710;51.120;13.136;2022-11-18T11:12:07;98223.53;;;6.41;61.61
54329;BME280;40710;51.120;13.136;2022-11-18T11:14:57;98234.47;;;5.47;63.17
54329;BME280;40710;51.120;13.136;2022-11-18T11:17:35;98228.81;;;6.23;61.28
54329;BME280;40710;51.120;13.136;2022-11-18T11:20:13;98230.19;;;6.31;61.66
54329;BME280;40710;51.120;13.136;2022-11-18T11:22:40;98233.72;;;5.45;63.33
54329;BME280;40710;51.120;13.136;2022-11-18T11:25:12;98249.03;;;5.52;63.61
54329;BME280;40710;51.120;13.136;2022-11-18T11:28:37;98247.16;;;5.71;64.12
54329;BME280;40710;51.120;13.136;2022-11-18T11:34:19;98264.22;;;4.89;65.18
54329;BME280;40710;51.120;13.136;2022-11-18T11:37:06;98257.16;;;5.45;64.41
54329;BME280;40710;51.120;13.136;2022-11-18T11:39:48;98259.81;;;5.09;65.20
54329;BME280;40710;51.120;13.136;2022-11-18T11:59:33;98244.78;;;6.01;61.62
54329;BME280;40710;51.120;13.136;2022-11-18T12:08:22;98244.78;;;5.84;60.43
54329;BME280;40710;51.120;13.136;2022-11-18T12:11:02;98261.69;;;5.42;61.51
54329;BME280;40710;51.120;13.136;2022-11-18T12:16:47;98253.50;;;6.66;60.93
54329;BME280;40710;51.120;13.136;2022-11-18T12:19:16;98258.81;;;6.32;61.88
54329;BME280;40710;51.120;13.136;2022-11-18T12:26:44;98263.13;;;6.49;60.66
54329;BME280;40710;51.120;13.136;2022-11-18T12:31:45;98302.41;;;4.13;64.75
54329;BME280;40710;51.120;13.136;2022-11-18T12:34:28;98304.69;;;4.78;64.48
54329;BME280;40710;51.120;13.136;2022-11-18T12:36:55;98286.19;;;5.38;62.06
54329;BME280;40710;51.120;13.136;2022-11-18T12:41:58;98294.50;;;5.63;61.84
54329;BME280;40710;51.120;13.136;2022-11-18T12:44:45;98297.47;;;5.21;61.72
54329;BME280;40710;51.120;13.136;2022-11-18T12:47:15;98299.31;;;5.71;61.51
54329;BME280;40710;51.120;13.136;2022-11-18T12:54:56;98315.66;;;5.03;62.98
54329;BME280;40710;51.120;13.136;2022-11-18T12:57:25;98307.56;;;4.90;61.72
54329;BME280;40710;51.120;13.136;2022-11-18T12:59:51;98320.22;;;4.98;63.90
54329;BME280;40710;51.120;13.136;2022-11-18T13:02:25;98321.50;;;4.70;62.67
54329;BME280;40710;51.120;13.136;2022-11-18T13:05:08;98329.00;;;3.78;64.01
54329;BME280;40710;51.120;13.136;2022-11-18T13:07:42;98328.63;;;4.27;64.03
54329;BME280;40710;51.120;13.136;2022-11-18T13:10:30;98321.19;;;5.15;61.06
54329;BME280;40710;51.120;13.136;2022-11-18T13:12:55;98313.41;;;5.32;60.26
54329;BME280;40710;51.120;13.136;2022-11-18T13:15:20;98332.63;;;4.74;62.87
54329;BME280;40710;51.120;13.136;2022-11-18T13:18:12;98342.28;;;4.12;64.73
54329;BME280;40710;51.120;13.136;2022-11-18T13:20:39;98337.63;;;4.20;63.25
54329;BME280;40710;51.120;13.136;2022-11-18T13:26:46;98358.53;;;3.55;66.18
54329;BME280;40710;51.120;13.136;2022-11-18T13:29:25;98362.78;;;3.36;65.25
54329;BME280;40710;51.120;13.136;2022-11-18T13:32:04;98359.91;;;4.65;63.75
54329;BME280;40710;51.120;13.136;2022-11-18T13:34:44;98350.69;;;4.96;62.13
54329;BME280;40710;51.120;13.136;2022-11-18T13:37:16;98353.72;;;5.42;60.94
54329;BME280;40710;51.120;13.136;2022-11-18T13:39:43;98360.31;;;4.75;61.29
54329;BME280;40710;51.120;13.136;2022-11-18T13:42:20;98373.97;;;4.01;63.23
54329;BME280;40710;51.120;13.136;2022-11-18T13:47:42;98385.00;;;4.47;63.84
54329;BME280;40710;51.120;13.136;2022-11-18T13:52:38;98388.19;;;3.72;63.80
54329;BME280;40710;51.120;13.136;2022-11-18T13:55:19;98380.44;;;5.28;62.35
54329;BME280;40710;51.120;13.136;2022-11-18T13:57:48;98394.94;;;4.38;63.39
54329;BME280;40710;51.120;13.136;2022-11-18T14:00:26;98401.72;;;4.21;63.47
54329;BME280;40710;51.120;13.136;2022-11-18T14:02:59;98396.78;;;3.94;62.69
54329;BME280;40710;51.120;13.136;2022-11-18T14:05:26;98404.50;;;3.53;63.23
54329;BME280;40710;51.120;13.136;2022-11-18T14:08:24;98404.00;;;3.88;64.27
54329;BME280;40710;51.120;13.136;2022-11-18T14:10:49;98399.63;;;3.46;63.58
54329;BME280;40710;51.120;13.136;2022-11-18T14:13:23;98410.31;;;3.38;63.96
54329;BME280;40710;51.120;13.136;2022-11-18T14:15:49;98404.16;;;3.83;63.64
54329;BME280;40710;51.120;13.136;2022-11-18T14:20:55;98409.59;;;4.20;62.07
54329;BME280;40710;51.120;13.136;2022-11-18T14:23:29;98406.06;;;4.21;61.27
54329;BME280;40710;51.120;13.136;2022-11-18T14:25:56;98408.03;;;3.07;62.76
54329;BME280;40710;51.120;13.136;2022-11-18T14:28:31;98417.22;;;3.15;63.49
54329;BME280;40710;51.120;13.136;2022-11-18T14:31:04;98415.97;;;3.26;62.82
54329;BME280;40710;51.120;13.136;2022-11-18T14:33:34;98424.84;;;3.86;61.12
54329;BME280;40710;51.120;13.136;2022-11-18T14:36:11;98439.53;;;2.97;63.35
54329;BME280;40710;51.120;13.136;2022-11-18T14:38:40;98443.25;;;2.90;62.61
54329;BME280;40710;51.120;13.136;2022-11-18T14:41:08;98439.72;;;3.60;62.46
54329;BME280;40710;51.120;13.136;2022-11-18T14:43:33;98457.56;;;3.02;64.14
54329;BME280;40710;51.120;13.136;2022-11-18T14:46:04;98452.88;;;3.78;62.84
54329;BME280;40710;51.120;13.136;2022-11-18T14:48:30;98451.56;;;3.90;62.51
54329;BME280;40710;51.120;13.136;2022-11-18T14:50:55;98464.19;;;3.09;64.82